San Pablo, California
Current Conditions -  °F | °C
As of 1:53 PM on Saturday 25 Oct 2014 (Local Time) from KCCR Reporting Station
Broken Clouds Broken Clouds  
Wind Chill: 68°   Ceiling: 6500
Heat Index: 68°   Visibility: 10mi
Dew Point: 54°   Wind: 16mph
Humidity: 61%   Direction: 230°SW
Pressure: 30.05"   Gusts: NA
Location:  37.96°N, 122.34°W
Report Text: KCCR 252053Z 23014KT 10SM SCT043 BKN065 20/12 A3005 RMK AO2 RAB02E22 SLP161 P0000 60000 T02000122 50003
Loading
Personal Weather Stations






























Interactive Weather Map
Tropical Storm Tracking
New forecast layout! Learn more

10-Day Weather Forecast

Advertisements
Track Severe Weather on mobile